Terminal Aerodrome Forecast
Issued by NWS North Platte, NE

Home | Current Version | Previous Version | Text Only | Print | Product List | Glossary On
Versions: 1 2 3 4 5 6 7 8 9 10 11 12 13 14 15 16
042
FTUS43 KLBF 202321
TAFLBF
TAF
KLBF 202321Z 2100/2124 31008KT P6SM OVC200
     FM210900 33007KT P6SM VCSH BKN090 OVC120
     FM211200 36009KT P6SM VCSH BKN070 OVC090
     FM211500 35013G19KT P6SM SCT080
     FM212200 34009KT P6SM FEW250=

USA.gov is the U.S. government's official web portal to all federal, state and local government web resources and services.